Portada
METAR-TAF:

METAR-TAF

Aeroports :

Tenerife, Espanya

latitud: 28-28N, longitud: 016-19W, altitud: 632 m

Observació

L'informe es va fer fa 29 minuts, a les 13:30 UTC
Vent 6 kt del Est/Sud-Est, variant entre Est/Nord-Est i Sud/Sud-Est
Temperatura 23°C
Humitat 50%
Pressió 1019 hPa
Visibilitat 10 km o més
Núvols disperses a una alçada de 2200 ft

METAR: GCXO 021330Z 11006KT 070V160 9999 SCT022 23/12 Q1019 NOSIG

Hora: 14:59 (13:59 UTC)

Pronòstic

L'informe es va fer fa 5 hores i 59 minuts, a les 08:00 UTC
Pronòstic vàlid del 02 a les 09 UTC al 03 a les 09 UTC
Vent 8 kt del Sud-Est
Visibilitat 10 km o més
Escasses núvols a una alçada de 1000 ft
Temporalment
l' 02 a les 17 UTC al 03 a les 02 UTC
Vent 10 kt del Nord/Nord-Oest
Probabilitat 30% :
Temporalment
l' 02 a les 22 UTC al 03 a les 08 UTC
Visibilitat: 2500 m
Cel ennuvolat a una alçada de 400 ft
boira en bancs

TAF: GCXO 020800Z 0209/0309 13008KT 9999 FEW010 TX23/0214Z TN16/0306Z TEMPO 0217/0302 33010KT PROB30 TEMPO 0222/0308 2500 BCFG BKN004

Observacions i pronòstics meteorològics de més de 4000 aeroports (METAR i TAF).

Les estacions disponibles són els punts grocs i vermells al mapa.

Posi el ratolí al punt desitjat per veure el nom de l'estació.

Feu clic per veure les observacions i els pronòstics meteorològics.

Per canviar el mapa: feu clic els botons verds amb una creu de color negre per apropar; al botó verd amb un guió per allunyar la imatge; o en les fletxes verdes per a mapes adjacents.


METAR-TAF: